createdAt,value
2023-04-28T00:01:47.923Z,100675.72
2023-04-28T00:04:15.526Z,100677.72
2023-04-28T00:06:43.001Z,100682.28
2023-04-28T00:09:11.230Z,100680.22
2023-04-28T00:11:38.730Z,100676.63
2023-04-28T00:14:06.495Z,100667.56
2023-04-28T00:16:33.817Z,100677.09
2023-04-28T00:19:01.038Z,100683.81
2023-04-28T00:21:28.762Z,100684.44
2023-04-28T00:23:56.346Z,100674.66
2023-04-28T00:26:23.709Z,100674.56
2023-04-28T00:28:51.049Z,100669.88
2023-04-28T00:31:18.506Z,100670.53
2023-04-28T00:33:45.799Z,100675.81
2023-04-28T00:36:13.221Z,100675.13
2023-04-28T00:38:40.451Z,100681.28
2023-04-28T00:41:10.269Z,100671.25
2023-04-28T00:43:50.490Z,100678.06
2023-04-28T00:46:27.188Z,100660.84
2023-04-28T00:48:54.531Z,100669.88
2023-04-28T00:51:21.926Z,100665.22
2023-04-28T00:53:49.307Z,100667.25
2023-04-28T00:56:16.962Z,100675.63
2023-04-28T00:58:44.173Z,100671.41
2023-04-28T01:01:11.613Z,100673.00
2023-04-28T01:03:40.668Z,100671.25
2023-04-28T01:06:10.328Z,100670.88
2023-04-28T01:08:39.280Z,100671.94
2023-04-28T01:11:14.409Z,100671.22
2023-04-28T01:14:01.685Z,100670.06
2023-04-28T01:16:33.675Z,100665.91
2023-04-28T01:19:01.523Z,100665.47
2023-04-28T01:21:34.649Z,100659.16
2023-04-28T01:24:14.181Z,100655.75
2023-04-28T01:26:41.642Z,100662.34
2023-04-28T01:29:08.981Z,100665.38
2023-04-28T01:31:36.459Z,100666.19
2023-04-28T01:34:03.805Z,100667.44
2023-04-28T01:36:32.112Z,100664.84
2023-04-28T01:38:59.427Z,100668.09
2023-04-28T01:41:26.663Z,100660.78
2023-04-28T01:43:53.921Z,100668.81
2023-04-28T01:46:21.246Z,100658.19
2023-04-28T01:48:48.593Z,100657.59
2023-04-28T01:51:15.888Z,100666.34
2023-04-28T01:53:43.500Z,100665.47
2023-04-28T01:56:11.649Z,100662.81
2023-04-28T01:58:39.536Z,100664.19
2023-04-28T02:01:07.344Z,100669.41
2023-04-28T02:03:35.074Z,100664.94
2023-04-28T02:06:04.822Z,100664.56
2023-04-28T02:08:32.237Z,100661.88
2023-04-28T02:11:01.560Z,100666.41
2023-04-28T02:13:29.090Z,100671.44
2023-04-28T02:15:56.791Z,100671.69
2023-04-28T02:18:24.113Z,100671.25
2023-04-28T02:20:51.440Z,100668.09
2023-04-28T02:23:18.752Z,100663.53
2023-04-28T02:25:46.210Z,100667.19
2023-04-28T02:28:14.107Z,100678.59
2023-04-28T02:30:41.387Z,100680.75
2023-04-28T02:33:08.712Z,100681.47
2023-04-28T02:35:35.987Z,100678.31
2023-04-28T02:38:03.240Z,100674.56
2023-04-28T02:40:30.594Z,100672.75
2023-04-28T02:42:58.357Z,100676.16
2023-04-28T02:45:25.785Z,100675.88
2023-04-28T02:47:53.390Z,100678.66
2023-04-28T02:50:20.750Z,100665.13
2023-04-28T02:52:49.198Z,100667.72
2023-04-28T02:55:23.837Z,100666.34
2023-04-28T02:57:52.433Z,100665.50
2023-04-28T03:00:19.722Z,100655.59
2023-04-28T03:02:49.255Z,100655.69
2023-04-28T03:05:16.646Z,100650.59
2023-04-28T03:07:44.313Z,100652.41
2023-04-28T03:10:11.623Z,100658.16
2023-04-28T03:12:39.225Z,100658.16
2023-04-28T03:15:08.937Z,100657.94
2023-04-28T03:17:39.184Z,100659.13
2023-04-28T03:20:08.718Z,100657.69
2023-04-28T03:22:36.361Z,100657.78
2023-04-28T03:25:05.474Z,100653.44
2023-04-28T03:27:41.242Z,100650.38
2023-04-28T03:30:10.383Z,100657.50
2023-04-28T03:32:37.750Z,100651.28
2023-04-28T03:35:05.588Z,100656.47
2023-04-28T03:37:33.094Z,100664.44
2023-04-28T03:40:00.834Z,100662.63
2023-04-28T03:42:31.446Z,100660.81
2023-04-28T03:45:09.544Z,100653.63
2023-04-28T03:47:36.869Z,100654.53
2023-04-28T03:50:04.431Z,100648.03
2023-04-28T03:52:31.701Z,100660.38
2023-04-28T03:54:58.954Z,100657.66
2023-04-28T03:57:26.199Z,100661.94
2023-04-28T03:59:53.492Z,100657.66
2023-04-28T04:02:21.182Z,100665.19
2023-04-28T04:04:49.125Z,100666.63
2023-04-28T04:07:16.849Z,100656.03
2023-04-28T04:09:44.183Z,100661.91
2023-04-28T04:12:11.974Z,100664.88
2023-04-28T04:14:39.429Z,100664.41
2023-04-28T04:17:06.829Z,100663.63
2023-04-28T04:19:34.035Z,100663.63
2023-04-28T04:22:01.478Z,100661.63
2023-04-28T04:24:30.870Z,100662.88
2023-04-28T04:26:58.273Z,100661.16
2023-04-28T04:29:33.556Z,100674.44
2023-04-28T04:32:05.665Z,100668.53
2023-04-28T04:34:33.953Z,100676.88
2023-04-28T04:37:01.846Z,100672.00
2023-04-28T04:39:29.484Z,100668.72
2023-04-28T04:41:58.046Z,100666.53
2023-04-28T04:44:44.280Z,100669.16
2023-04-28T04:47:20.247Z,100664.94
2023-04-28T04:49:49.576Z,100657.41
2023-04-28T04:52:17.244Z,100677.78
2023-04-28T04:54:46.334Z,100679.91
2023-04-28T04:57:15.041Z,100680.25
2023-04-28T05:00:11.835Z,100679.47
2023-04-28T05:02:40.224Z,100681.81
2023-04-28T05:05:20.544Z,100683.22
2023-04-28T05:07:56.489Z,100689.50
2023-04-28T05:10:24.849Z,100685.69
2023-04-28T05:12:52.317Z,100691.16
2023-04-28T05:15:19.562Z,100688.91
2023-04-28T05:18:10.857Z,100693.75
2023-04-28T05:20:38.518Z,100689.94
2023-04-28T05:23:06.836Z,100693.06
2023-04-28T05:25:34.344Z,100698.63
2023-04-28T05:28:07.714Z,100695.41
2023-04-28T05:30:36.148Z,100695.06
2023-04-28T05:33:04.095Z,100684.41
2023-04-28T05:35:31.792Z,100697.19
2023-04-28T05:37:59.392Z,100701.28
2023-04-28T05:40:27.446Z,100695.38
2023-04-28T05:42:55.812Z,100689.34
2023-04-28T05:45:23.248Z,100700.91
2023-04-28T05:47:51.093Z,100696.50
2023-04-28T05:50:18.616Z,100706.09
2023-04-28T05:52:45.848Z,100706.94
2023-04-28T05:55:13.677Z,100712.94
2023-04-28T05:57:51.885Z,100704.59
2023-04-28T06:00:20.433Z,100703.25
2023-04-28T06:02:47.906Z,100713.44
2023-04-28T06:05:15.610Z,100713.91
2023-04-28T06:07:43.892Z,100710.75
2023-04-28T06:10:11.528Z,100707.53
2023-04-28T06:12:39.500Z,100709.88
2023-04-28T06:15:07.268Z,100717.47
2023-04-28T06:17:35.122Z,100711.22
2023-04-28T06:20:02.491Z,100711.28
2023-04-28T06:22:29.857Z,100714.69
2023-04-28T06:24:57.085Z,100719.44
2023-04-28T06:27:33.014Z,100715.06
2023-04-28T06:30:00.359Z,100718.19
2023-04-28T06:32:27.659Z,100719.53
2023-04-28T06:34:57.108Z,100724.09
2023-04-28T06:37:26.989Z,100721.78
2023-04-28T06:39:54.483Z,100715.78
2023-04-28T06:42:21.740Z,100714.44
2023-04-28T06:44:58.441Z,100722.09
2023-04-28T06:47:28.151Z,100721.09
2023-04-28T06:49:55.444Z,100725.47
2023-04-28T06:52:33.464Z,100721.09
2023-04-28T06:55:08.023Z,100734.66
2023-04-28T06:57:35.648Z,100737.16
2023-04-28T07:00:04.254Z,100739.47
2023-04-28T07:02:31.736Z,100740.22
2023-04-28T07:04:59.124Z,100741.53
2023-04-28T07:07:26.587Z,100749.34
2023-04-28T07:09:53.908Z,100743.13
2023-04-28T07:12:23.479Z,100745.03
2023-04-28T07:14:51.613Z,100740.22
2023-04-28T07:17:19.217Z,100742.09
2023-04-28T07:19:46.473Z,100739.09
2023-04-28T07:22:13.680Z,100744.50
2023-04-28T07:24:40.899Z,100748.69
2023-04-28T07:27:08.306Z,100750.50
2023-04-28T07:29:35.556Z,100752.16
2023-04-28T07:32:07.315Z,100751.16
2023-04-28T07:34:38.242Z,100751.47
2023-04-28T07:37:05.722Z,100754.59
2023-04-28T07:39:39.179Z,100756.16
2023-04-28T07:42:06.515Z,100757.47
2023-04-28T07:44:34.020Z,100756.88
2023-04-28T07:47:01.936Z,100763.25
2023-04-28T07:49:29.624Z,100768.28
2023-04-28T07:51:57.314Z,100767.75
2023-04-28T07:54:25.346Z,100757.13
2023-04-28T07:56:53.051Z,100764.28
2023-04-28T07:59:20.557Z,100763.72
2023-04-28T08:01:47.903Z,100757.41
2023-04-28T08:04:15.400Z,100772.91
2023-04-28T08:06:43.166Z,100763.50
2023-04-28T08:09:10.614Z,100764.44
2023-04-28T08:11:38.191Z,100761.94
2023-04-28T08:14:05.548Z,100764.03
2023-04-28T08:16:34.477Z,100769.16
2023-04-28T08:19:01.977Z,100762.19
2023-04-28T08:21:29.239Z,100767.19
2023-04-28T08:23:56.503Z,100766.03
2023-04-28T08:26:24.765Z,100771.69
2023-04-28T08:28:52.526Z,100767.91
2023-04-28T08:31:19.804Z,100778.44
2023-04-28T08:33:50.112Z,100776.78
2023-04-28T08:36:18.295Z,100776.41
2023-04-28T08:38:46.041Z,100777.50
2023-04-28T08:41:15.634Z,100771.22
2023-04-28T08:43:43.390Z,100776.03
2023-04-28T08:46:11.114Z,100782.59
2023-04-28T08:48:43.515Z,100774.94
2023-04-28T08:51:17.132Z,100778.09
2023-04-28T08:54:11.719Z,100780.00
2023-04-28T08:56:36.722Z,100784.72
2023-04-28T08:59:05.054Z,100781.34
2023-04-28T09:01:32.670Z,100785.72
2023-04-28T09:04:04.057Z,100793.94
2023-04-28T09:06:36.151Z,100792.88
2023-04-28T09:09:20.084Z,100789.69
2023-04-28T09:11:55.631Z,100785.03
2023-04-28T09:14:23.970Z,100791.03
2023-04-28T09:16:51.913Z,100792.50
2023-04-28T09:19:19.711Z,100787.81
2023-04-28T09:21:54.888Z,100791.09
2023-04-28T09:24:33.852Z,100794.50
2023-04-28T09:27:02.655Z,100800.44
2023-04-28T09:29:31.006Z,100801.81
2023-04-28T09:32:13.680Z,100808.97
2023-04-28T09:34:56.699Z,100803.84
2023-04-28T09:37:30.780Z,100808.63
2023-04-28T09:40:06.942Z,100798.38
2023-04-28T09:42:35.399Z,100800.31
2023-04-28T09:45:10.795Z,100798.03
2023-04-28T09:47:42.543Z,100797.97
2023-04-28T09:50:14.462Z,100802.09
2023-04-28T09:52:43.015Z,100800.94
2023-04-28T09:55:12.039Z,100801.63
2023-04-28T09:57:40.118Z,100800.44
2023-04-28T10:00:09.555Z,100795.13
2023-04-28T10:05:09.938Z,100802.13
2023-04-28T10:07:37.758Z,100805.88
2023-04-28T10:10:05.631Z,100805.28
2023-04-28T10:12:33.034Z,100805.56
2023-04-28T10:15:00.596Z,100803.38
2023-04-28T10:17:29.798Z,100803.16
2023-04-28T10:19:57.571Z,100815.00
2023-04-28T10:23:02.183Z,100804.28
2023-04-28T10:25:35.242Z,100808.22
2023-04-28T10:28:06.877Z,100821.94
2023-04-28T10:30:35.180Z,100811.81
2023-04-28T10:33:06.829Z,100817.25
2023-04-28T10:35:36.434Z,100819.13
2023-04-28T10:38:08.520Z,100817.63
2023-04-28T10:40:38.641Z,100817.69
2023-04-28T10:43:07.263Z,100802.84
2023-04-28T10:45:56.227Z,100813.25
2023-04-28T10:48:47.001Z,100820.28
2023-04-28T10:51:14.181Z,100820.03
2023-04-28T10:53:53.316Z,100822.91
2023-04-28T10:56:25.997Z,100817.06
2023-04-28T10:58:54.899Z,100818.19
2023-04-28T11:01:22.693Z,100818.06
2023-04-28T11:03:51.761Z,100816.00
2023-04-28T11:06:26.199Z,100819.84
2023-04-28T11:08:56.426Z,100820.16
2023-04-28T11:11:25.769Z,100818.75
2023-04-28T11:13:54.996Z,100815.59
2023-04-28T11:16:24.413Z,100814.44
2023-04-28T11:18:55.864Z,100818.47
2023-04-28T11:21:24.791Z,100806.28
2023-04-28T11:23:52.043Z,100807.59
2023-04-28T11:26:19.958Z,100802.66
2023-04-28T11:28:55.426Z,100806.81
2023-04-28T11:31:24.336Z,100792.16
2023-04-28T11:33:55.616Z,100802.94
2023-04-28T11:36:24.753Z,100787.69
2023-04-28T11:38:52.124Z,100781.53
2023-04-28T11:41:19.541Z,100794.66
2023-04-28T11:43:47.705Z,100784.25
2023-04-28T11:46:22.241Z,100787.84
2023-04-28T11:49:00.433Z,100791.22
2023-04-28T11:51:38.849Z,100781.75
2023-04-28T11:54:07.961Z,100785.03
2023-04-28T11:56:39.652Z,100779.06
2023-04-28T11:59:08.785Z,100777.91
2023-04-28T12:01:52.825Z,100775.50
2023-04-28T12:04:38.084Z,100779.63
2023-04-28T12:07:16.970Z,100784.44
2023-04-28T12:10:05.603Z,100792.88
2023-04-28T12:15:06.232Z,100786.19
2023-04-28T12:17:34.417Z,100776.78
2023-04-28T12:20:06.946Z,100777.47
2023-04-28T12:22:50.770Z,100774.94
2023-04-28T12:25:19.452Z,100780.94
2023-04-28T12:28:06.718Z,100773.78
2023-04-28T12:30:35.895Z,100782.16
2023-04-28T12:33:04.486Z,100779.81
2023-04-28T12:35:33.216Z,100781.44
2023-04-28T12:38:00.653Z,100780.84
2023-04-28T12:40:27.934Z,100781.56
2023-04-28T12:42:55.167Z,100792.31
2023-04-28T12:45:22.438Z,100791.97
2023-04-28T12:47:49.804Z,100799.75
2023-04-28T12:50:17.115Z,100777.69
2023-04-28T12:52:44.321Z,100790.31
2023-04-28T12:55:11.835Z,100810.16
2023-04-28T12:57:39.766Z,100813.19
2023-04-28T13:00:08.445Z,100811.66
2023-04-28T13:02:36.182Z,100811.31
2023-04-28T13:05:03.678Z,100801.88
2023-04-28T13:07:31.870Z,100800.00
2023-04-28T13:09:59.445Z,100805.38
2023-04-28T13:12:26.811Z,100801.47
2023-04-28T13:14:54.144Z,100801.81
2023-04-28T13:17:21.462Z,100792.91
2023-04-28T13:19:48.773Z,100797.16
2023-04-28T13:22:16.190Z,100785.47
2023-04-28T13:24:44.033Z,100785.91
2023-04-28T13:27:11.647Z,100793.03
2023-04-28T13:29:39.103Z,100786.31
2023-04-28T13:32:06.619Z,100790.81
2023-04-28T13:34:33.910Z,100783.59
2023-04-28T13:37:01.261Z,100797.50
2023-04-28T13:39:28.563Z,100791.53
2023-04-28T13:41:55.878Z,100781.22
2023-04-28T13:44:23.229Z,100780.97
2023-04-28T13:46:50.477Z,100782.81
2023-04-28T13:49:18.064Z,100776.63
2023-04-28T13:51:45.762Z,100773.97
2023-04-28T13:54:13.033Z,100764.59
2023-04-28T13:56:40.498Z,100764.59
2023-04-28T13:59:07.884Z,100767.88
2023-04-28T14:01:35.209Z,100766.19
2023-04-28T14:04:03.380Z,100770.66
2023-04-28T14:06:32.424Z,100782.19
2023-04-28T14:09:01.181Z,100781.47
2023-04-28T14:11:28.296Z,100779.25
2023-04-28T14:13:55.457Z,100780.13
2023-04-28T14:16:22.736Z,100780.03
2023-04-28T14:18:50.039Z,100784.22
2023-04-28T14:21:17.370Z,100774.88
2023-04-28T14:23:44.594Z,100784.00
2023-04-28T14:26:11.868Z,100771.47
2023-04-28T14:28:41.014Z,100764.38
2023-04-28T14:31:09.080Z,100769.66
2023-04-28T14:33:37.132Z,100766.66
2023-04-28T14:36:05.530Z,100765.56
2023-04-28T14:38:32.917Z,100771.94
2023-04-28T14:41:00.468Z,100768.81
2023-04-28T14:43:27.774Z,100778.38
2023-04-28T14:45:55.153Z,100773.00
2023-04-28T14:48:22.373Z,100767.00
2023-04-28T14:50:51.266Z,100765.09
2023-04-28T14:53:18.894Z,100763.53
2023-04-28T14:55:46.159Z,100779.78
2023-04-28T14:58:13.393Z,100770.16
2023-04-28T15:00:41.650Z,100773.59
2023-04-28T15:03:09.115Z,100774.75
2023-04-28T15:05:36.532Z,100769.50
2023-04-28T15:08:06.373Z,100775.09
2023-04-28T15:10:39.012Z,100773.06
2023-04-28T15:13:07.547Z,100767.00
2023-04-28T15:15:35.191Z,100772.72
2023-04-28T15:18:04.373Z,100769.69
2023-04-28T15:20:33.340Z,100784.75
2023-04-28T15:23:00.912Z,100780.69
2023-04-28T15:25:28.305Z,100772.91
2023-04-28T15:27:56.174Z,100776.97
2023-04-28T15:30:23.640Z,100779.16
2023-04-28T15:32:51.193Z,100780.44
2023-04-28T15:35:18.703Z,100786.28
2023-04-28T15:37:51.798Z,100784.75
2023-04-28T15:40:20.051Z,100782.22
2023-04-28T15:42:53.071Z,100795.22
2023-04-28T15:45:22.053Z,100792.75
2023-04-28T15:47:54.850Z,100788.00
2023-04-28T15:50:22.516Z,100793.09
2023-04-28T15:52:51.129Z,100789.72
2023-04-28T15:55:20.861Z,100792.34
2023-04-28T15:57:49.012Z,100782.31
2023-04-28T16:00:16.645Z,100786.44
2023-04-28T16:02:45.068Z,100785.53
2023-04-28T16:05:12.638Z,100786.31
2023-04-28T16:07:43.013Z,100791.00
2023-04-28T16:10:15.135Z,100783.13
2023-04-28T16:12:43.179Z,100791.66
2023-04-28T16:15:12.708Z,100789.38
2023-04-28T16:17:41.034Z,100785.09
2023-04-28T16:20:11.603Z,100788.03
2023-04-28T16:22:40.274Z,100784.47
2023-04-28T16:25:07.838Z,100783.56
2023-04-28T16:27:35.560Z,100788.75
2023-04-28T16:30:04.971Z,100778.66
2023-04-28T16:32:33.586Z,100781.25
2023-04-28T16:35:01.044Z,100789.94
2023-04-28T16:37:28.949Z,100794.81
2023-04-28T16:39:56.617Z,100794.03
2023-04-28T16:42:23.900Z,100789.34
2023-04-28T16:44:52.657Z,100791.34
2023-04-28T16:47:20.987Z,100780.06
2023-04-28T16:49:48.740Z,100805.69
2023-04-28T16:52:16.842Z,100806.03
2023-04-28T16:54:44.310Z,100795.84
2023-04-28T16:57:11.593Z,100795.03
2023-04-28T16:59:38.972Z,100804.09
2023-04-28T17:02:06.797Z,100800.38
2023-04-28T17:04:34.893Z,100800.91
2023-04-28T17:07:05.396Z,100800.47
2023-04-28T17:09:33.424Z,100806.47
2023-04-28T17:12:01.220Z,100807.38
2023-04-28T17:14:28.707Z,100809.47
2023-04-28T17:16:56.609Z,100808.38
2023-04-28T17:19:23.904Z,100820.88
2023-04-28T17:21:52.862Z,100816.59
2023-04-28T17:24:20.197Z,100819.72
2023-04-28T17:26:47.533Z,100825.09
2023-04-28T17:29:15.484Z,100814.63
2023-04-28T17:31:42.890Z,100831.22
2023-04-28T17:34:10.460Z,100829.19
2023-04-28T17:36:37.845Z,100829.69
2023-04-28T17:39:05.175Z,100831.28
2023-04-28T17:41:32.539Z,100836.75
2023-04-28T17:43:59.905Z,100840.25
2023-04-28T17:46:27.711Z,100844.88
2023-04-28T17:48:55.093Z,100844.31
2023-04-28T17:51:22.441Z,100855.03
2023-04-28T17:53:49.872Z,100853.28
2023-04-28T17:56:17.329Z,100853.06
2023-04-28T17:58:44.612Z,100857.03
2023-04-28T18:01:11.954Z,100862.22
2023-04-28T18:03:39.711Z,100867.69
2023-04-28T18:06:08.229Z,100872.59
2023-04-28T18:08:36.724Z,100869.63
2023-04-28T18:11:04.901Z,100891.72
2023-04-28T18:13:33.144Z,100885.22
2023-04-28T18:16:01.013Z,100883.03
2023-04-28T18:18:30.233Z,100883.44
2023-04-28T18:20:59.642Z,100886.00
2023-04-28T18:23:27.047Z,100894.72
2023-04-28T18:25:54.316Z,100887.31
2023-04-28T18:28:21.656Z,100893.34
2023-04-28T18:30:49.207Z,100899.22
2023-04-28T18:33:23.002Z,100897.38
2023-04-28T18:35:59.870Z,100894.69
2023-04-28T18:38:27.365Z,100899.91
2023-04-28T18:40:54.875Z,100899.03
2023-04-28T18:43:23.612Z,100900.09
2023-04-28T18:45:51.008Z,100907.63
2023-04-28T18:48:19.119Z,100914.13
2023-04-28T18:50:48.620Z,100911.03
2023-04-28T18:53:17.074Z,100920.66
2023-04-28T18:55:44.831Z,100914.63
2023-04-28T18:58:12.211Z,100932.69
2023-04-28T19:00:39.772Z,100921.56
2023-04-28T19:03:07.212Z,100933.19
2023-04-28T19:05:34.640Z,100935.38
2023-04-28T19:08:02.007Z,100940.34
2023-04-28T19:10:29.343Z,100933.38
2023-04-28T19:12:56.631Z,100934.19
2023-04-28T19:15:25.126Z,100940.34
2023-04-28T19:17:53.265Z,100946.38
2023-04-28T19:20:20.638Z,100950.69
2023-04-28T19:22:48.054Z,100960.66
2023-04-28T19:25:16.643Z,100963.09
2023-04-28T19:27:44.953Z,100970.97
2023-04-28T19:30:13.797Z,100969.22
2023-04-28T19:32:41.948Z,100983.53
2023-04-28T19:35:10.019Z,100989.06
2023-04-28T19:37:37.340Z,100989.94
2023-04-28T19:40:05.050Z,100987.75
2023-04-28T19:42:33.577Z,100992.50
2023-04-28T19:45:00.951Z,100992.50
2023-04-28T19:47:29.894Z,100991.53
2023-04-28T19:49:57.317Z,100989.72
2023-04-28T19:52:24.583Z,100998.25
2023-04-28T19:54:52.226Z,101010.72
2023-04-28T19:57:19.792Z,101012.09
2023-04-28T19:59:48.105Z,101018.59
2023-04-28T20:02:16.363Z,101014.53
2023-04-28T20:04:43.784Z,101017.41
2023-04-28T20:07:12.050Z,101024.53
2023-04-28T20:09:39.507Z,101030.25
2023-04-28T20:12:08.628Z,101025.78
2023-04-28T20:14:37.188Z,101029.75
2023-04-28T20:17:05.214Z,101024.00
2023-04-28T20:19:32.643Z,101045.09
2023-04-28T20:22:02.419Z,101043.44
2023-04-28T20:24:30.039Z,101045.25
2023-04-28T20:26:58.103Z,101044.53
2023-04-28T20:29:27.130Z,101039.66
2023-04-28T20:31:55.288Z,101041.97
2023-04-28T20:34:23.348Z,101046.56
2023-04-28T20:36:51.589Z,101051.56
2023-04-28T20:39:19.330Z,101048.66
2023-04-28T20:41:47.820Z,101053.19
2023-04-28T20:44:15.212Z,101052.38
2023-04-28T20:46:43.313Z,101051.94
2023-04-28T20:49:12.368Z,101045.56
2023-04-28T20:51:44.037Z,101049.50
2023-04-28T20:54:12.724Z,101055.84
2023-04-28T20:56:42.081Z,101054.09
2023-04-28T20:59:09.361Z,101061.31
2023-04-28T21:01:36.813Z,101060.81
2023-04-28T21:04:04.350Z,101069.81
2023-04-28T21:06:31.966Z,101073.75
2023-04-28T21:08:59.264Z,101074.84
2023-04-28T21:11:27.060Z,101066.13
2023-04-28T21:13:54.437Z,101064.28
2023-04-28T21:16:21.968Z,101074.44
2023-04-28T21:18:50.036Z,101080.88
2023-04-28T21:21:18.290Z,101078.00
2023-04-28T21:23:45.873Z,101084.19
2023-04-28T21:26:13.416Z,101090.78
2023-04-28T21:28:41.604Z,101085.66
2023-04-28T21:31:09.845Z,101090.34
2023-04-28T21:33:37.354Z,101086.84
2023-04-28T21:36:07.916Z,101090.28
2023-04-28T21:38:37.173Z,101092.97
2023-04-28T21:41:04.933Z,101089.19
2023-04-28T21:43:32.225Z,101082.75
2023-04-28T21:45:59.576Z,101089.06
2023-04-28T21:48:26.929Z,101087.91
2023-04-28T21:50:54.187Z,101101.22
2023-04-28T21:53:21.537Z,101086.25
2023-04-28T21:55:49.224Z,101088.91
2023-04-28T21:58:16.552Z,101099.53
2023-04-28T22:00:46.481Z,101088.00
2023-04-28T22:03:15.496Z,101095.03
2023-04-28T22:05:44.019Z,101096.78
2023-04-28T22:08:11.807Z,101100.03
2023-04-28T22:10:39.257Z,101097.09
2023-04-28T22:13:06.806Z,101101.03
2023-04-28T22:15:34.218Z,101103.16
2023-04-28T22:18:01.805Z,101112.94
2023-04-28T22:20:29.183Z,101112.09
2023-04-28T22:22:57.663Z,101131.00
2023-04-28T22:25:25.360Z,101120.91
2023-04-28T22:27:52.646Z,101122.34
2023-04-28T22:30:19.889Z,101121.69
2023-04-28T22:32:47.721Z,101128.69
2023-04-28T22:35:16.554Z,101128.72
2023-04-28T22:37:44.634Z,101135.59
2023-04-28T22:40:12.142Z,101129.56
2023-04-28T22:42:41.013Z,101139.47
2023-04-28T22:45:10.248Z,101142.88
2023-04-28T22:47:39.653Z,101139.63
2023-04-28T22:50:09.124Z,101143.22
2023-04-28T22:52:36.961Z,101138.50
2023-04-28T22:55:04.863Z,101146.81
2023-04-28T22:57:32.210Z,101150.25
2023-04-28T22:59:59.744Z,101148.75
2023-04-28T23:02:27.147Z,101157.22
2023-04-28T23:04:54.557Z,101157.56
2023-04-28T23:07:21.778Z,101147.56
2023-04-28T23:09:49.314Z,101160.97
2023-04-28T23:12:16.844Z,101166.22
2023-04-28T23:14:44.271Z,101159.84
2023-04-28T23:17:11.668Z,101160.84
2023-04-28T23:19:39.411Z,101162.94
2023-04-28T23:22:07.881Z,101157.88
2023-04-28T23:24:37.959Z,101163.25
2023-04-28T23:27:06.089Z,101159.91
2023-04-28T23:29:35.256Z,101157.66
2023-04-28T23:32:03.241Z,101157.19
2023-04-28T23:34:32.239Z,101155.94
2023-04-28T23:36:59.431Z,101161.44
2023-04-28T23:39:29.820Z,101168.69
2023-04-28T23:41:57.187Z,101159.66
2023-04-28T23:44:24.452Z,101165.03
2023-04-28T23:46:51.811Z,101172.75
2023-04-28T23:49:20.837Z,101172.66
2023-04-28T23:51:48.217Z,101176.81
2023-04-28T23:54:15.525Z,101176.31
2023-04-28T23:56:43.075Z,101175.34
2023-04-28T23:59:10.398Z,101162.75
